Terminal Aerodrome Forecast
Issued by NWS La Crosse, WI

Home | Current Version | Previous Version | Text Only | Print | Product List | Glossary On
Versions: 1 2 3 4 5 6 7 8 9 10 11 12 13 14 15 16 17 18 19 20 21 22 23 24 25 26
000
FTUS43 KARX 230857 AAA
TAFLSE
TAF AMD
KLSE 230857Z 2309/2406 VRB03KT 1SM -DZ BR OVC008
      TEMPO 2309/2311 1/2SM FG OVC005
     FM231200 31004KT 3SM BR OVC006
      TEMPO 2312/2315 2SM BR OVC004
     FM232000 30004KT 5SM BR OVC010=

USA.gov is the U.S. government's official web portal to all federal, state and local government web resources and services.